Main page
METAR-TAF:

METAR-TAF

Airports :

RAF Shawbury

Shawbury, England

latitude: 52-48N, longitude: 002-40W, elevation: 76 m

Current weather observation

The report was made 30 minutes ago, at 22:50 UTC
Wind 3 kt from the East
Temperature 16°C
Humidity 55%
Pressure 1001 hPa
Visibility 10 km or more

METAR: EGOS 222250Z AUTO 08003KT 9999 OVC100/// 16/07 Q1001

Time: 00:20 (23:20 UTC)


TAF: missing

Weather observations and forecasts of more than 4000 airports (METAR and TAF reports).

The available stations are represented by yellow and red dots on the map.

Hover mouse over dot to see the name of the station.

Then click to see weather observations and forecasts.

To change the map : click on the green buttons with a black cross to zoom in, on the green button with a dash to zoom out, or on the green arrows for adjacent maps.


METAR-TAF: